Time;durP1;ratioP1;P1;durP2;ratioP2;P2;SDS_P1;SDS_P2;PMS_P1;PMS_P2;Temp;Humidity;BMP_temperature;BMP_pressure;BME280_temperature;BME280_humidity;BME280_pressure;Samples;Min_cycle;Max_cycle;Signal;HPM_P1;HPM_P2
2020/12/21 00:01:31;;;;;;;;;;;;;;;;;;5045587;28;20568;-88
2020/12/21 00:03:58;;;;;;;;;;;;;;;;;;5067531;28;20360;-87
2020/12/21 00:06:25;;;;;;;;;;;;;;;;;;5059597;28;20055;-87
2020/12/21 00:08:52;;;;;;;;;;;;;;;;;;5054678;28;19933;-88
2020/12/21 00:11:19;;;;;;;;;;;;;;;;;;5043772;28;19929;-87
2020/12/21 00:13:47;;;;;;;;;;;;;;;;;;5054875;28;20007;-87
2020/12/21 00:16:14;;;;;;;;;;;;;;;;;;5055447;28;20367;-88
2020/12/21 00:18:41;;;;;;;;;;;;;;;;;;5036390;28;20023;-88
2020/12/21 00:21:08;;;;;;;;;;;;;;;;;;5022777;28;20541;-87
2020/12/21 00:23:35;;;;;;;;;;;;;;;;;;5032379;28;19960;-87
2020/12/21 00:26:02;;;;;;;;;;;;;;;;;;5032775;28;20009;-88
2020/12/21 00:28:29;;;;;;;;;;;;;;;;;;5032073;28;19963;-87
2020/12/21 00:30:57;;;;;;;;;;;;;;;;;;5031768;28;20379;-87
2020/12/21 00:33:33;;;;;;;;;;;;;;;;;;5021627;28;20356;-88
2020/12/21 00:36:00;;;;;;;;;;;;;;;;;;5021284;28;19925;-87
2020/12/21 00:38:28;;;;;;;;;;;;;;;;;;5032486;28;19979;-87
2020/12/21 00:40:55;;;;;;;;;;;;;;;;;;5031827;28;19933;-87
2020/12/21 00:43:22;;;;;;;;;;;;;;;;;;5032892;28;20382;-87
2020/12/21 00:45:49;;;;;;;;;;;;;;;;;;5033122;28;19988;-87
2020/12/21 00:48:16;;;;;;;;;;;;;;;;;;5016684;28;19932;-87
2020/12/21 00:50:44;;;;;;;;;;;;;;;;;;5028368;28;20032;-87
2020/12/21 00:53:11;;;;;;;;;;;;;;;;;;5034702;28;20335;-87
2020/12/21 00:55:38;;;;;;;;;;;;;;;;;;5036393;28;20043;-87
2020/12/21 00:58:05;;;;;;;;;;;;;;;;;;5027685;28;19953;-87
2020/12/21 01:00:33;;;;;;;;;;;;;;;;;;5033512;28;20353;-87
2020/12/21 01:03:00;;;;;;;;;;;;;;;;;;5032770;28;19925;-87
2020/12/21 01:05:27;;;;;;;;;;;;;;;;;;5020674;28;20353;-87
2020/12/21 01:07:54;;;;;;;;;;;;;;;;;;5029862;28;20024;-87
2020/12/21 01:10:21;;;;;;;;;;;;;;;;;;5024016;28;20051;-87
2020/12/21 01:12:48;;;;;;;;;;;;;;;;;;5023648;28;20023;-87
2020/12/21 01:15:16;;;;;;;;;;;;;;;;;;5026468;28;19929;-88
2020/12/21 01:17:43;;;;;;;;;;;;;;;;;;5029867;28;19968;-87
2020/12/21 01:20:12;;;;;;;;;;;;;;;;;;5031720;28;19932;-87
2020/12/21 01:22:40;;;;;;;;;;;;;;;;;;5026433;28;19931;-87
2020/12/21 01:25:07;;;;;;;;;;;;;;;;;;5028869;28;19969;-87
2020/12/21 01:27:34;;;;;;;;;;;;;;;;;;5028523;28;20392;-86
2020/12/21 01:30:01;;;;;;;;;;;;;;;;;;5034494;28;19932;-87
2020/12/21 01:32:29;;;;;;;;;;;;;;;;;;5044467;28;19964;-87
2020/12/21 01:34:56;;;;;;;;;;;;;;;;;;5052555;28;19951;-87
2020/12/21 01:37:23;;;;;;;;;;;;;;;;;;5051186;28;19925;-87
2020/12/21 01:39:50;;;;;;;;;;;;;;;;;;5037257;28;20080;-87
2020/12/21 01:42:17;;;;;;;;;;;;;;;;;;5046989;28;19959;-87
2020/12/21 01:44:44;;;;;;;;;;;;;;;;;;5039631;28;19929;-87
2020/12/21 01:47:12;;;;;;;;;;;;;;;;;;5052334;28;20027;-87
2020/12/21 01:49:39;;;;;;;;;;;;;;;;;;5045464;28;19928;-87
2020/12/21 01:52:06;;;;;;;;;;;;;;;;;;5043783;28;20011;-87
2020/12/21 01:54:33;;;;;;;;;;;;;;;;;;5045656;28;19929;-87
2020/12/21 01:57:01;;;;;;;;;;;;;;;;;;5047671;28;20382;-87
2020/12/21 01:59:28;;;;;;;;;;;;;;;;;;5042281;28;19924;-87
2020/12/21 02:01:55;;;;;;;;;;;;;;;;;;5052103;28;20011;-87
2020/12/21 02:04:29;;;;;;;;;;;;;;;;;;5109896;22;20370;-67
2020/12/21 02:06:57;;;;;;;;;;;;;;;;;;5073223;28;19947;-67
2020/12/21 02:09:24;;;;;;;;;;;;;;;;;;5073080;28;20369;-67
2020/12/21 02:11:51;;;;;;;;;;;;;;;;;;5073756;28;19924;-67
2020/12/21 02:14:18;;;;;;;;;;;;;;;;;;5073059;28;19924;-67
2020/12/21 02:16:45;;;;;;;;;;;;;;;;;;5072708;28;20304;-67
2020/12/21 02:19:12;;;;;;;;;;;;;;;;;;5073377;28;19924;-67
2020/12/21 02:21:39;;;;;;;;;;;;;;;;;;5073320;28;19979;-66
2020/12/21 02:24:06;;;;;;;;;;;;;;;;;;5072969;28;20373;-66
2020/12/21 02:26:34;;;;;;;;;;;;;;;;;;5073084;28;19924;-66
2020/12/21 02:29:01;;;;;;;;;;;;;;;;;;5073110;28;19929;-66
2020/12/21 02:31:28;;;;;;;;;;;;;;;;;;5073989;28;20015;-66
2020/12/21 02:33:55;;;;;;;;;;;;;;;;;;5069935;28;19931;-66
2020/12/21 02:36:22;;;;;;;;;;;;;;;;;;5072569;28;19931;-66
2020/12/21 02:38:49;;;;;;;;;;;;;;;;;;5074475;28;19959;-66
2020/12/21 02:41:16;;;;;;;;;;;;;;;;;;5067720;28;19931;-66
2020/12/21 02:43:43;;;;;;;;;;;;;;;;;;5070418;28;20027;-66
2020/12/21 02:46:11;;;;;;;;;;;;;;;;;;5081115;28;19942;-66
2020/12/21 02:48:38;;;;;;;;;;;;;;;;;;5070188;28;19928;-66
2020/12/21 02:51:05;;;;;;;;;;;;;;;;;;5072538;28;19936;-67
2020/12/21 02:53:32;;;;;;;;;;;;;;;;;;5074963;28;19947;-66
2020/12/21 02:55:59;;;;;;;;;;;;;;;;;;5069936;28;19991;-68
2020/12/21 02:58:26;;;;;;;;;;;;;;;;;;5080409;28;19940;-67
2020/12/21 03:00:53;;;;;;;;;;;;;;;;;;5069789;28;19935;-67
2020/12/21 03:03:21;;;;;;;;;;;;;;;;;;5066154;28;20462;-68
2020/12/21 03:05:48;;;;;;;;;;;;;;;;;;5050427;28;19924;-68
2020/12/21 03:08:16;;;;;;;;;;;;;;;;;;5057789;28;20027;-68
2020/12/21 03:10:44;;;;;;;;;;;;;;;;;;5070695;28;19928;-67
2020/12/21 03:13:11;;;;;;;;;;;;;;;;;;5069493;28;20287;-67
2020/12/21 03:15:38;;;;;;;;;;;;;;;;;;5060829;28;19924;-67
2020/12/21 03:18:05;;;;;;;;;;;;;;;;;;5069416;28;19924;-67
2020/12/21 03:20:32;;;;;;;;;;;;;;;;;;5074913;28;20376;-67
2020/12/21 03:22:59;;;;;;;;;;;;;;;;;;5069902;28;20031;-66
2020/12/21 03:25:26;;;;;;;;;;;;;;;;;;5070078;28;19935;-68
2020/12/21 03:27:53;;;;;;;;;;;;;;;;;;5075482;28;19929;-67
2020/12/21 03:30:20;;;;;;;;;;;;;;;;;;5068737;28;19924;-66
2020/12/21 03:32:51;;;;;;;;;;;;;;;;;;5055193;28;19970;-67
2020/12/21 03:35:25;;;;;;;;;;;;;;;;;;5069606;28;19940;-66
2020/12/21 03:37:52;;;;;;;;;;;;;;;;;;5081589;28;20402;-66
2020/12/21 03:40:20;;;;;;;;;;;;;;;;;;5068791;28;19924;-67
2020/12/21 03:42:47;;;;;;;;;;;;;;;;;;5057433;28;19924;-66
2020/12/21 03:45:14;;;;;;;;;;;;;;;;;;5069530;28;19951;-67
2020/12/21 03:47:42;;;;;;;;;;;;;;;;;;5070006;28;19924;-66
2020/12/21 03:50:09;;;;;;;;;;;;;;;;;;5069246;28;19948;-67
2020/12/21 03:52:36;;;;;;;;;;;;;;;;;;5069863;28;19931;-66
2020/12/21 03:55:03;;;;;;;;;;;;;;;;;;5070318;28;19924;-66
2020/12/21 03:57:30;;;;;;;;;;;;;;;;;;5061293;28;20031;-67
2020/12/21 03:59:57;;;;;;;;;;;;;;;;;;5071558;28;20271;-66
2020/12/21 04:02:24;;;;;;;;;;;;;;;;;;5080230;28;19982;-67
2020/12/21 04:04:51;;;;;;;;;;;;;;;;;;5068908;28;19932;-68
2020/12/21 04:07:18;;;;;;;;;;;;;;;;;;5072865;28;19935;-66
2020/12/21 04:09:46;;;;;;;;;;;;;;;;;;5070830;28;19986;-66
2020/12/21 04:12:13;;;;;;;;;;;;;;;;;;5072418;28;20290;-66
2020/12/21 04:14:46;;;;;;;;;;;;;;;;;;4848095;28;9999900;-68
2020/12/21 04:17:13;;;;;;;;;;;;;;;;;;697869;28;10002016;-67
2020/12/21 04:19:40;;;;;;;;;;;;;;;;;;5075083;28;20023;-67
2020/12/21 04:22:07;;;;;;;;;;;;;;;;;;5090508;28;19932;-67
2020/12/21 04:24:34;;;;;;;;;;;;;;;;;;5072706;28;20303;-66
2020/12/21 04:27:02;;;;;;;;;;;;;;;;;;5072792;28;19935;-67
2020/12/21 04:29:29;;;;;;;;;;;;;;;;;;5072005;28;19947;-66
2020/12/21 04:31:56;;;;;;;;;;;;;;;;;;5072648;28;19925;-66
2020/12/21 04:34:23;;;;;;;;;;;;;;;;;;5072710;28;19935;-67
2020/12/21 04:36:50;;;;;;;;;;;;;;;;;;5072171;28;19954;-67
2020/12/21 04:39:17;;;;;;;;;;;;;;;;;;5071704;28;19924;-66
2020/12/21 04:41:44;;;;;;;;;;;;;;;;;;5071279;28;20308;-66
2020/12/21 04:44:11;;;;;;;;;;;;;;;;;;5072092;28;19999;-67
2020/12/21 04:46:39;;;;;;;;;;;;;;;;;;5091598;28;20376;-67
2020/12/21 04:49:06;;;;;;;;;;;;;;;;;;5078551;28;20376;-66
2020/12/21 04:51:33;;;;;;;;;;;;;;;;;;5072420;28;19924;-67
2020/12/21 04:54:00;;;;;;;;;;;;;;;;;;5072324;28;19931;-67
2020/12/21 04:56:27;;;;;;;;;;;;;;;;;;5062697;28;20059;-67
2020/12/21 04:58:54;;;;;;;;;;;;;;;;;;5070968;28;20015;-68
2020/12/21 05:01:22;;;;;;;;;;;;;;;;;;5071459;28;19924;-67
2020/12/21 05:03:49;;;;;;;;;;;;;;;;;;5071166;28;20022;-68
2020/12/21 05:06:20;;;;;;;;;;;;;;;;;;5078803;28;19925;-67
2020/12/21 05:08:47;;;;;;;;;;;;;;;;;;5072272;28;19931;-67
2020/12/21 05:11:14;;;;;;;;;;;;;;;;;;5067355;28;20379;-66
2020/12/21 05:13:41;;;;;;;;;;;;;;;;;;5072060;28;20008;-67
2020/12/21 05:16:08;;;;;;;;;;;;;;;;;;5071057;28;20629;-67
2020/12/21 05:18:35;;;;;;;;;;;;;;;;;;5074479;28;20213;-66
2020/12/21 05:21:03;;;;;;;;;;;;;;;;;;5074652;28;19924;-66
2020/12/21 05:23:30;;;;;;;;;;;;;;;;;;5071546;28;19934;-66
2020/12/21 05:25:57;;;;;;;;;;;;;;;;;;5070632;28;20414;-67
2020/12/21 05:28:24;;;;;;;;;;;;;;;;;;5070606;28;19951;-67
2020/12/21 05:30:51;;;;;;;;;;;;;;;;;;5070783;28;20272;-67
2020/12/21 05:33:18;;;;;;;;;;;;;;;;;;5071881;28;19931;-66
2020/12/21 05:35:45;;;;;;;;;;;;;;;;;;5068529;28;19968;-67
2020/12/21 05:38:12;;;;;;;;;;;;;;;;;;5064804;28;20021;-66
2020/12/21 05:40:39;;;;;;;;;;;;;;;;;;5070637;28;19994;-66
2020/12/21 05:43:07;;;;;;;;;;;;;;;;;;5079273;28;20273;-66
2020/12/21 05:45:34;;;;;;;;;;;;;;;;;;5072030;28;20364;-67
2020/12/21 05:48:01;;;;;;;;;;;;;;;;;;5070741;28;20368;-67
2020/12/21 05:50:28;;;;;;;;;;;;;;;;;;5071032;28;20276;-68
2020/12/21 05:52:56;;;;;;;;;;;;;;;;;;5067231;28;19954;-67
2020/12/21 05:55:23;;;;;;;;;;;;;;;;;;5054805;28;19947;-66
2020/12/21 05:57:50;;;;;;;;;;;;;;;;;;5086259;28;19977;-67
2020/12/21 06:00:17;;;;;;;;;;;;;;;;;;5056173;28;20255;-66
2020/12/21 06:02:44;;;;;;;;;;;;;;;;;;5084172;28;19933;-66
2020/12/21 06:05:11;;;;;;;;;;;;;;;;;;5070374;28;19966;-67
2020/12/21 06:07:39;;;;;;;;;;;;;;;;;;5067799;28;20026;-67
2020/12/21 06:10:06;;;;;;;;;;;;;;;;;;5079934;28;19928;-66
2020/12/21 06:12:33;;;;;;;;;;;;;;;;;;5069632;28;19928;-67
2020/12/21 06:15:00;;;;;;;;;;;;;;;;;;5085291;28;20373;-66
2020/12/21 06:17:28;;;;;;;;;;;;;;;;;;5072109;28;20266;-67
2020/12/21 06:19:55;;;;;;;;;;;;;;;;;;5082621;28;19947;-67
2020/12/21 06:22:22;;;;;;;;;;;;;;;;;;5073693;28;19935;-68
2020/12/21 06:24:49;;;;;;;;;;;;;;;;;;5080040;28;19935;-68
2020/12/21 06:27:24;;;;;;;;;;;;;;;;;;5071819;28;20299;-67
2020/12/21 06:29:51;;;;;;;;;;;;;;;;;;5070386;28;19930;-67
2020/12/21 06:32:18;;;;;;;;;;;;;;;;;;5070549;28;20313;-67
2020/12/21 06:34:45;;;;;;;;;;;;;;;;;;5070829;28;19924;-67
2020/12/21 06:37:19;;;;;;;;;;;;;;;;;;5069011;28;20356;-66
2020/12/21 06:39:46;;;;;;;;;;;;;;;;;;5070493;28;20007;-66
2020/12/21 06:42:13;;;;;;;;;;;;;;;;;;5061832;28;20015;-67
2020/12/21 06:44:41;;;;;;;;;;;;;;;;;;5086681;28;19960;-67
2020/12/21 06:47:08;;;;;;;;;;;;;;;;;;5073942;28;19924;-66
2020/12/21 06:49:35;;;;;;;;;;;;;;;;;;5087115;28;19932;-66
2020/12/21 06:52:02;;;;;;;;;;;;;;;;;;5070557;28;19974;-67
2020/12/21 06:54:30;;;;;;;;;;;;;;;;;;5067879;28;20410;-67
2020/12/21 06:56:57;;;;;;;;;;;;;;;;;;5069338;28;19967;-68
2020/12/21 06:59:24;;;;;;;;;;;;;;;;;;5068322;28;20475;-67
2020/12/21 07:01:51;;;;;;;;;;;;;;;;;;5066082;28;20241;-67
2020/12/21 07:04:18;;;;;;;;;;;;;;;;;;5067978;28;20016;-67
2020/12/21 07:06:45;;;;;;;;;;;;;;;;;;5069284;28;20447;-68
2020/12/21 07:09:13;;;;;;;;;;;;;;;;;;5068179;28;19932;-67
2020/12/21 07:11:40;;;;;;;;;;;;;;;;;;5069804;28;19951;-67
2020/12/21 07:14:07;;;;;;;;;;;;;;;;;;5069459;28;20408;-67
2020/12/21 07:16:34;;;;;;;;;;;;;;;;;;5068763;28;20022;-67
2020/12/21 07:19:01;;;;;;;;;;;;;;;;;;5063009;28;19925;-67
2020/12/21 07:21:28;;;;;;;;;;;;;;;;;;5064105;28;19924;-68
2020/12/21 07:23:55;;;;;;;;;;;;;;;;;;5066643;28;19955;-68
2020/12/21 07:26:22;;;;;;;;;;;;;;;;;;5065202;28;20015;-67
2020/12/21 07:28:50;;;;;;;;;;;;;;;;;;5069097;28;20384;-67
2020/12/21 07:31:17;;;;;;;;;;;;;;;;;;5067039;28;19925;-67
2020/12/21 07:33:44;;;;;;;;;;;;;;;;;;5068871;28;20333;-67
2020/12/21 07:36:11;;;;;;;;;;;;;;;;;;5071272;28;20014;-67
2020/12/21 07:38:38;;;;;;;;;;;;;;;;;;5068608;28;20011;-67
2020/12/21 07:41:05;;;;;;;;;;;;;;;;;;5071553;28;19931;-67
2020/12/21 07:43:32;;;;;;;;;;;;;;;;;;5059812;28;19943;-67
2020/12/21 07:45:59;;;;;;;;;;;;;;;;;;5056757;28;19933;-67
2020/12/21 07:48:27;;;;;;;;;;;;;;;;;;5056475;28;19933;-68
2020/12/21 07:50:54;;;;;;;;;;;;;;;;;;5059959;28;19951;-67
2020/12/21 07:53:23;;;;;;;;;;;;;;;;;;5061875;28;20618;-68
2020/12/21 07:55:50;;;;;;;;;;;;;;;;;;5062652;28;19963;-67
2020/12/21 07:58:17;;;;;;;;;;;;;;;;;;5063756;28;20058;-67
2020/12/21 08:00:44;;;;;;;;;;;;;;;;;;5049928;28;20011;-68
2020/12/21 08:03:12;;;;;;;;;;;;;;;;;;5052871;28;19929;-69
2020/12/21 08:05:39;;;;;;;;;;;;;;;;;;5049212;28;20291;-67
2020/12/21 08:08:14;;;;;;;;;;;;;;;;;;5056995;28;19929;-68
2020/12/21 08:10:41;;;;;;;;;;;;;;;;;;5055728;28;19974;-68
2020/12/21 08:13:08;;;;;;;;;;;;;;;;;;5058376;28;19929;-67
2020/12/21 08:15:35;;;;;;;;;;;;;;;;;;5063311;28;19933;-67
2020/12/21 08:18:02;;;;;;;;;;;;;;;;;;5061224;28;20419;-67
2020/12/21 08:20:29;;;;;;;;;;;;;;;;;;5061289;28;19932;-67
2020/12/21 08:22:57;;;;;;;;;;;;;;;;;;5062317;28;20023;-68
2020/12/21 08:25:24;;;;;;;;;;;;;;;;;;5064075;28;19951;-68
2020/12/21 08:27:51;;;;;;;;;;;;;;;;;;5063064;28;19938;-68
2020/12/21 08:30:18;;;;;;;;;;;;;;;;;;5063762;28;19999;-67
2020/12/21 08:32:46;;;;;;;;;;;;;;;;;;5060409;28;19987;-68
2020/12/21 08:35:13;;;;;;;;;;;;;;;;;;5061676;28;20015;-69
2020/12/21 08:37:40;;;;;;;;;;;;;;;;;;5061941;28;19933;-68
2020/12/21 08:40:07;;;;;;;;;;;;;;;;;;5061576;28;19951;-69
2020/12/21 08:42:34;;;;;;;;;;;;;;;;;;5059939;28;20043;-68
2020/12/21 08:45:01;;;;;;;;;;;;;;;;;;5066003;28;19928;-68
2020/12/21 08:47:29;;;;;;;;;;;;;;;;;;5063096;28;19980;-67
2020/12/21 08:49:56;;;;;;;;;;;;;;;;;;5060983;28;19928;-68
2020/12/21 08:52:23;;;;;;;;;;;;;;;;;;5063910;28;20030;-67
2020/12/21 08:54:50;;;;;;;;;;;;;;;;;;5055497;28;20036;-67
2020/12/21 08:57:17;;;;;;;;;;;;;;;;;;5064110;28;19928;-68
2020/12/21 08:59:44;;;;;;;;;;;;;;;;;;5053328;28;20039;-68
2020/12/21 09:02:11;;;;;;;;;;;;;;;;;;5067987;28;19931;-68
2020/12/21 09:04:38;;;;;;;;;;;;;;;;;;5063973;28;19925;-68
2020/12/21 09:07:06;;;;;;;;;;;;;;;;;;5057280;28;19928;-67
2020/12/21 09:09:33;;;;;;;;;;;;;;;;;;5058957;28;20309;-67
2020/12/21 09:12:04;;;;;;;;;;;;;;;;;;5071126;28;19982;-68
2020/12/21 09:14:31;;;;;;;;;;;;;;;;;;5062614;28;20016;-67
2020/12/21 09:16:58;;;;;;;;;;;;;;;;;;5069476;28;19930;-67
2020/12/21 09:19:26;;;;;;;;;;;;;;;;;;5066736;28;19954;-67
2020/12/21 09:21:53;;;;;;;;;;;;;;;;;;5066552;28;20348;-68
2020/12/21 09:24:20;;;;;;;;;;;;;;;;;;5068266;28;19940;-67
2020/12/21 09:26:47;;;;;;;;;;;;;;;;;;5066001;28;19929;-68
2020/12/21 09:29:14;;;;;;;;;;;;;;;;;;5065957;28;20348;-67
2020/12/21 09:31:41;;;;;;;;;;;;;;;;;;5065321;28;20375;-68
2020/12/21 09:34:08;;;;;;;;;;;;;;;;;;5067923;28;19935;-70
2020/12/21 09:36:36;;;;;;;;;;;;;;;;;;5058231;28;20122;-67
2020/12/21 09:39:09;;;;;;;;;;;;;;;;;;5062384;28;20390;-67
2020/12/21 09:41:37;;;;;;;;;;;;;;;;;;5067455;28;19924;-67
2020/12/21 09:44:04;;;;;;;;;;;;;;;;;;5063637;28;20241;-69
2020/12/21 09:46:31;;;;;;;;;;;;;;;;;;5065539;28;19935;-68
2020/12/21 09:49:03;;;;;;;;;;;;;;;;;;5066776;28;19984;-68
2020/12/21 09:51:30;;;;;;;;;;;;;;;;;;5069956;28;20481;-68
2020/12/21 09:53:58;;;;;;;;;;;;;;;;;;5066001;28;20417;-67
2020/12/21 09:56:25;;;;;;;;;;;;;;;;;;5064720;28;19940;-67
2020/12/21 09:58:52;;;;;;;;;;;;;;;;;;5064479;28;19978;-69
2020/12/21 10:01:19;;;;;;;;;;;;;;;;;;5066716;28;19951;-67
2020/12/21 10:03:46;;;;;;;;;;;;;;;;;;5067683;28;19929;-67
2020/12/21 10:06:13;;;;;;;;;;;;;;;;;;5071688;28;19932;-67
2020/12/21 10:08:41;;;;;;;;;;;;;;;;;;5066444;28;20299;-68
2020/12/21 10:11:08;;;;;;;;;;;;;;;;;;5066514;28;19955;-67
2020/12/21 10:13:35;;;;;;;;;;;;;;;;;;5060441;28;19925;-68
2020/12/21 10:16:03;;;;;;;;;;;;;;;;;;5067839;28;19928;-68
2020/12/21 10:18:30;;;;;;;;;;;;;;;;;;5067944;28;20402;-68
2020/12/21 10:20:57;;;;;;;;;;;;;;;;;;5066254;28;19931;-68
2020/12/21 10:23:24;;;;;;;;;;;;;;;;;;5067658;28;19990;-68
2020/12/21 10:25:52;;;;;;;;;;;;;;;;;;5068489;28;19929;-68
2020/12/21 10:28:19;;;;;;;;;;;;;;;;;;5067753;28;20386;-67
2020/12/21 10:30:46;;;;;;;;;;;;;;;;;;5066891;28;19940;-67
2020/12/21 10:33:15;;;;;;;;;;;;;;;;;;5064397;28;19928;-68
2020/12/21 10:35:43;;;;;;;;;;;;;;;;;;5062909;28;19935;-70
2020/12/21 10:38:10;;;;;;;;;;;;;;;;;;5065731;28;19928;-67
2020/12/21 10:40:37;;;;;;;;;;;;;;;;;;5065370;28;20257;-68
2020/12/21 10:43:05;;;;;;;;;;;;;;;;;;5063386;28;19976;-68
2020/12/21 10:45:32;;;;;;;;;;;;;;;;;;5064803;28;19935;-67
2020/12/21 10:47:59;;;;;;;;;;;;;;;;;;5066237;28;19994;-67
2020/12/21 10:50:26;;;;;;;;;;;;;;;;;;5067181;28;19978;-67
2020/12/21 10:52:53;;;;;;;;;;;;;;;;;;5066082;28;19928;-68
2020/12/21 10:55:21;;;;;;;;;;;;;;;;;;5067373;28;19932;-69
2020/12/21 10:57:48;;;;;;;;;;;;;;;;;;5066190;28;19925;-68
2020/12/21 11:00:15;;;;;;;;;;;;;;;;;;5066108;28;19971;-68
2020/12/21 11:02:42;;;;;;;;;;;;;;;;;;5065064;28;19932;-69
2020/12/21 11:05:09;;;;;;;;;;;;;;;;;;5061359;28;20019;-67
2020/12/21 11:07:37;;;;;;;;;;;;;;;;;;5057605;28;19925;-67
2020/12/21 11:10:09;;;;;;;;;;;;;;;;;;5078709;28;20315;-68
2020/12/21 11:12:37;;;;;;;;;;;;;;;;;;5068705;28;19936;-68
2020/12/21 11:15:04;;;;;;;;;;;;;;;;;;5074428;28;20018;-68
2020/12/21 11:17:31;;;;;;;;;;;;;;;;;;5060885;28;19971;-69
2020/12/21 11:19:59;;;;;;;;;;;;;;;;;;5060426;28;20052;-68
2020/12/21 11:22:26;;;;;;;;;;;;;;;;;;5059508;28;20015;-69
2020/12/21 11:24:53;;;;;;;;;;;;;;;;;;5059352;28;19929;-68
2020/12/21 11:27:21;;;;;;;;;;;;;;;;;;5054556;28;19935;-68
2020/12/21 11:29:48;;;;;;;;;;;;;;;;;;5060462;28;19940;-69
2020/12/21 11:32:21;;;;;;;;;;;;;;;;;;5060680;28;19940;-69
2020/12/21 11:34:48;;;;;;;;;;;;;;;;;;5060325;28;20443;-68
2020/12/21 11:37:15;;;;;;;;;;;;;;;;;;5058515;28;20023;-70
2020/12/21 11:39:42;;;;;;;;;;;;;;;;;;5059202;28;19937;-70
2020/12/21 11:42:09;;;;;;;;;;;;;;;;;;5063476;28;20027;-68
2020/12/21 11:44:37;;;;;;;;;;;;;;;;;;5060336;28;19925;-68
2020/12/21 11:47:04;;;;;;;;;;;;;;;;;;5059353;28;19929;-68
2020/12/21 11:49:31;;;;;;;;;;;;;;;;;;5057919;28;20011;-68
2020/12/21 11:51:58;;;;;;;;;;;;;;;;;;5061388;28;19964;-68
2020/12/21 11:54:25;;;;;;;;;;;;;;;;;;5060901;28;19982;-68
2020/12/21 11:56:53;;;;;;;;;;;;;;;;;;5060254;28;19929;-67
2020/12/21 11:59:20;;;;;;;;;;;;;;;;;;5058979;28;19929;-70
2020/12/21 12:01:50;;;;;;;;;;;;;;;;;;5061313;28;19933;-69
2020/12/21 12:04:17;;;;;;;;;;;;;;;;;;5060117;28;20011;-68
2020/12/21 12:06:45;;;;;;;;;;;;;;;;;;5060767;28;19932;-68
2020/12/21 12:09:13;;;;;;;;;;;;;;;;;;5059719;28;19958;-69
2020/12/21 12:11:40;;;;;;;;;;;;;;;;;;5059691;28;19982;-68
2020/12/21 12:14:07;;;;;;;;;;;;;;;;;;5060899;28;19964;-69
2020/12/21 12:16:34;;;;;;;;;;;;;;;;;;5059907;28;20471;-69
2020/12/21 12:19:01;;;;;;;;;;;;;;;;;;5059973;28;20035;-68
2020/12/21 12:21:28;;;;;;;;;;;;;;;;;;5061626;28;19924;-68
2020/12/21 12:23:55;;;;;;;;;;;;;;;;;;5060434;28;19981;-68
2020/12/21 12:26:24;;;;;;;;;;;;;;;;;;5060392;28;19929;-68
2020/12/21 12:28:53;;;;;;;;;;;;;;;;;;5059961;28;19932;-68
2020/12/21 12:31:20;;;;;;;;;;;;;;;;;;5059665;28;20023;-68
2020/12/21 12:33:48;;;;;;;;;;;;;;;;;;5060666;28;19933;-69
2020/12/21 12:36:15;;;;;;;;;;;;;;;;;;5059275;28;20411;-69
2020/12/21 12:38:42;;;;;;;;;;;;;;;;;;5060725;28;19929;-69
2020/12/21 12:41:09;;;;;;;;;;;;;;;;;;5060569;28;19929;-68
2020/12/21 12:43:36;;;;;;;;;;;;;;;;;;5058649;28;20023;-68
2020/12/21 12:46:03;;;;;;;;;;;;;;;;;;5059206;28;20039;-68
2020/12/21 12:48:30;;;;;;;;;;;;;;;;;;5061371;28;20434;-68
2020/12/21 12:50:58;;;;;;;;;;;;;;;;;;5059609;28;19990;-69
2020/12/21 12:53:26;;;;;;;;;;;;;;;;;;5059881;28;20141;-69
2020/12/21 12:55:53;;;;;;;;;;;;;;;;;;5060617;28;19928;-68
2020/12/21 12:58:20;;;;;;;;;;;;;;;;;;5058881;28;19933;-69
2020/12/21 13:00:48;;;;;;;;;;;;;;;;;;5058342;28;19932;-67
2020/12/21 13:03:15;;;;;;;;;;;;;;;;;;5059806;28;19928;-68
2020/12/21 13:05:44;;;;;;;;;;;;;;;;;;5058810;28;19931;-67
2020/12/21 13:08:11;;;;;;;;;;;;;;;;;;5059085;28;20682;-68
2020/12/21 13:10:38;;;;;;;;;;;;;;;;;;5058145;28;19935;-67
2020/12/21 13:13:05;;;;;;;;;;;;;;;;;;5058985;28;20019;-67
2020/12/21 13:15:36;;;;;;;;;;;;;;;;;;5059284;28;19928;-68
2020/12/21 13:18:03;;;;;;;;;;;;;;;;;;5058973;28;20415;-67
2020/12/21 13:20:30;;;;;;;;;;;;;;;;;;5056982;28;19928;-68
2020/12/21 13:22:57;;;;;;;;;;;;;;;;;;5059815;28;20015;-67
2020/12/21 13:25:24;;;;;;;;;;;;;;;;;;5058882;28;19924;-68
2020/12/21 13:27:51;;;;;;;;;;;;;;;;;;5059861;28;19928;-67
2020/12/21 13:30:21;;;;;;;;;;;;;;;;;;5058980;28;20019;-67
2020/12/21 13:32:48;;;;;;;;;;;;;;;;;;5062107;28;20022;-67
2020/12/21 13:35:17;;;;;;;;;;;;;;;;;;5059680;28;19924;-67
2020/12/21 13:37:44;;;;;;;;;;;;;;;;;;5058518;28;20020;-68
2020/12/21 13:40:11;;;;;;;;;;;;;;;;;;5057657;28;19933;-67
2020/12/21 13:42:38;;;;;;;;;;;;;;;;;;5060628;28;20024;-68
2020/12/21 13:45:06;;;;;;;;;;;;;;;;;;5058137;28;19983;-67
2020/12/21 13:47:34;;;;;;;;;;;;;;;;;;5058055;28;19936;-67
2020/12/21 13:50:02;;;;;;;;;;;;;;;;;;5056782;28;19935;-68
2020/12/21 13:52:29;;;;;;;;;;;;;;;;;;5058185;28;19967;-67
2020/12/21 13:54:57;;;;;;;;;;;;;;;;;;5058177;28;19928;-66
2020/12/21 13:57:24;;;;;;;;;;;;;;;;;;5058879;28;19955;-67
2020/12/21 13:59:51;;;;;;;;;;;;;;;;;;5059297;28;20063;-67
2020/12/21 14:02:18;;;;;;;;;;;;;;;;;;5056957;28;20033;-67
2020/12/21 14:04:46;;;;;;;;;;;;;;;;;;5058943;28;19935;-68
2020/12/21 14:07:13;;;;;;;;;;;;;;;;;;5056992;28;19951;-68
2020/12/21 14:09:40;;;;;;;;;;;;;;;;;;5050181;28;20016;-68
2020/12/21 14:12:07;;;;;;;;;;;;;;;;;;5056823;28;19987;-68
2020/12/21 14:14:34;;;;;;;;;;;;;;;;;;5057192;28;19928;-69
2020/12/21 14:17:02;;;;;;;;;;;;;;;;;;5057486;28;19929;-68
2020/12/21 14:19:29;;;;;;;;;;;;;;;;;;5057095;28;19967;-68
2020/12/21 14:22:12;;;;;;;;;;;;;;;;;;5054548;28;20880;-68
2020/12/21 14:24:42;;;;;;;;;;;;;;;;;;5059059;28;19928;-68
2020/12/21 14:27:09;;;;;;;;;;;;;;;;;;5057129;28;20281;-67
2020/12/21 14:29:36;;;;;;;;;;;;;;;;;;5055978;28;19939;-68
2020/12/21 14:32:03;;;;;;;;;;;;;;;;;;5056336;28;19972;-67
2020/12/21 14:34:31;;;;;;;;;;;;;;;;;;5057389;28;20496;-67
2020/12/21 14:36:58;;;;;;;;;;;;;;;;;;5056617;28;20021;-67
2020/12/21 14:39:25;;;;;;;;;;;;;;;;;;5055871;28;19978;-67
2020/12/21 14:41:52;;;;;;;;;;;;;;;;;;5055716;28;19928;-67
2020/12/21 14:44:19;;;;;;;;;;;;;;;;;;5058904;28;20423;-67
2020/12/21 14:46:47;;;;;;;;;;;;;;;;;;5056706;28;19970;-67
2020/12/21 14:49:14;;;;;;;;;;;;;;;;;;5056130;28;19929;-67
2020/12/21 14:51:41;;;;;;;;;;;;;;;;;;5056678;28;19955;-67
2020/12/21 14:54:08;;;;;;;;;;;;;;;;;;5057918;28;19978;-67
2020/12/21 14:56:35;;;;;;;;;;;;;;;;;;5057460;28;19955;-68
2020/12/21 14:59:02;;;;;;;;;;;;;;;;;;5057211;28;19928;-67
2020/12/21 15:01:29;;;;;;;;;;;;;;;;;;5056304;28;19935;-67
2020/12/21 15:03:57;;;;;;;;;;;;;;;;;;5055263;28;19934;-67
2020/12/21 15:06:24;;;;;;;;;;;;;;;;;;5059157;28;19956;-67
2020/12/21 15:08:51;;;;;;;;;;;;;;;;;;5056859;28;20036;-66
2020/12/21 15:11:18;;;;;;;;;;;;;;;;;;5055435;28;19935;-67
2020/12/21 15:13:45;;;;;;;;;;;;;;;;;;5054001;28;19929;-67
2020/12/21 15:16:12;;;;;;;;;;;;;;;;;;5053613;28;20430;-67
2020/12/21 15:18:40;;;;;;;;;;;;;;;;;;5052694;28;19935;-67
2020/12/21 15:21:07;;;;;;;;;;;;;;;;;;5052840;28;20017;-69
2020/12/21 15:23:34;;;;;;;;;;;;;;;;;;5053315;28;19928;-67
2020/12/21 15:26:02;;;;;;;;;;;;;;;;;;5054641;28;19986;-66
2020/12/21 15:28:29;;;;;;;;;;;;;;;;;;5053848;28;19968;-68
2020/12/21 15:30:56;;;;;;;;;;;;;;;;;;5053080;28;19928;-67
2020/12/21 15:33:23;;;;;;;;;;;;;;;;;;5053241;28;20409;-67
2020/12/21 15:35:52;;;;;;;;;;;;;;;;;;5050850;28;19955;-67
2020/12/21 15:38:19;;;;;;;;;;;;;;;;;;5051823;28;20047;-68
2020/12/21 15:40:48;;;;;;;;;;;;;;;;;;5054801;28;19935;-67
2020/12/21 15:43:15;;;;;;;;;;;;;;;;;;5054233;28;19928;-68
2020/12/21 15:45:42;;;;;;;;;;;;;;;;;;5054294;28;19929;-67
2020/12/21 15:48:09;;;;;;;;;;;;;;;;;;5052959;28;19959;-66
2020/12/21 15:50:47;;;;;;;;;;;;;;;;;;5053078;28;19932;-67
2020/12/21 15:53:14;;;;;;;;;;;;;;;;;;5054959;28;19932;-66
2020/12/21 15:55:42;;;;;;;;;;;;;;;;;;5057079;28;20005;-67
2020/12/21 15:58:09;;;;;;;;;;;;;;;;;;5058255;28;19955;-67
2020/12/21 16:00:36;;;;;;;;;;;;;;;;;;5056918;28;20322;-67
2020/12/21 16:03:03;;;;;;;;;;;;;;;;;;5057331;28;19936;-66
2020/12/21 16:05:31;;;;;;;;;;;;;;;;;;5057439;28;19967;-66
2020/12/21 16:07:58;;;;;;;;;;;;;;;;;;5057521;28;19939;-66
2020/12/21 16:10:25;;;;;;;;;;;;;;;;;;5060999;28;20259;-66
2020/12/21 16:12:53;;;;;;;;;;;;;;;;;;5055032;28;19932;-67
2020/12/21 16:15:20;;;;;;;;;;;;;;;;;;5056206;28;19933;-66
2020/12/21 16:17:47;;;;;;;;;;;;;;;;;;5056775;28;20135;-66
2020/12/21 16:20:14;;;;;;;;;;;;;;;;;;5057961;28;20343;-66
2020/12/21 16:22:42;;;;;;;;;;;;;;;;;;5057435;28;20160;-66
2020/12/21 16:25:09;;;;;;;;;;;;;;;;;;5056935;28;19928;-65
2020/12/21 16:27:36;;;;;;;;;;;;;;;;;;5058719;28;20210;-68
2020/12/21 16:30:04;;;;;;;;;;;;;;;;;;5054751;28;20379;-68
2020/12/21 16:32:31;;;;;;;;;;;;;;;;;;5055306;28;19940;-68
2020/12/21 16:34:58;;;;;;;;;;;;;;;;;;5057659;28;19971;-67
2020/12/21 16:37:26;;;;;;;;;;;;;;;;;;5055859;28;19932;-68
2020/12/21 16:39:53;;;;;;;;;;;;;;;;;;5057197;28;20028;-66
2020/12/21 16:42:21;;;;;;;;;;;;;;;;;;5057397;28;20385;-65
2020/12/21 16:44:48;;;;;;;;;;;;;;;;;;5057061;28;20011;-65
2020/12/21 16:47:15;;;;;;;;;;;;;;;;;;5055649;28;19935;-67